Aérodrome :
LOGIN :

S'inscrire | Disclaimer

   EN    FR    IT 

 










Légende :    VFR   VFR Marginal   IFR   IFR Intensif   IFR Très Intensif
Visi : 
Plafond : 
>= 8 km
>= 3000ft
5 à 8 km
1000 à 3000 ft
1500m à 5 km
500 à 1000 ft
800 à 1500m
200 à 500 ft
< 800m
< 200 ft
Symboles :   Orages  Brouillard  Fortes neiges  Fortes précipitations  Vent > 20 kt
SIGMETs :   Divers  Orages  Givrage  Turbulence  Onde Orograph.  Cendres Volcan.







- Altitude de l'aérodrome : 505 ft
- Code IATA : SXB
- Voir les cartes d'approche


LFST - Strasbourg

DERNIER METAR :
  • 222330Z AUTO 30007KT 9999 OVC050 08/04 Q1021 TEMPO 4000 BR

METARs EXPIRÉS :
  • 222300Z AUTO 27008KT 9999 SCT040 BKN046 OVC052 08/05 Q1021 NOSIG
  • 222230Z AUTO 31009KT 9999 FEW025 BKN036 OVC047 09/05 Q1020 NOSIG
  • 222200Z AUTO 33005KT 9999 FEW026 BKN033 BKN041 09/06 Q1020 NOSIG
  • 222130Z AUTO 32007KT 9999 FEW033 BKN042 OVC049 09/06 Q1019 NOSIG
  • 222100Z AUTO 31008KT 9999 BKN036 OVC046 09/06 Q1018 NOSIG

TAF TAF LFST
Valide du 23 à 00h jusqu'au 24 à 00h UTC


222300Z 2300/2324 26006KT 9999 BKN040
PROB30 2300/2305 4000 BR NSC
BECMG 2305/2307 20008KT
TEMPO 2318/2324 -RA BKN020
Pas de NOTAMs connus pour ce terrain.



MET'MAP, la Météo Aéronautique d'un coup d'oeil ! - Copyright ORBIFLY Décembre 2007 - Disclaimer

ORBIFLY MET'MAP TEAM :

Programmation & Développement : Alexandra Zaïnal
Conception & Développement : Baudouin d'Aumeries
Co-Programmation & Développement : Marc-Olivier Méhu
Soutien technique & logistique : Manuel Goepfert

Contact : metmap@orbifly.com




SOURCES & CREDITS :

   NOAA